Time;durP1;ratioP1;P1;durP2;ratioP2;P2;SDS_P1;SDS_P2;PMS_P1;PMS_P2;Temp;Humidity;BMP_temperature;BMP_pressure;BME280_temperature;BME280_humidity;BME280_pressure;Samples;Min_cycle;Max_cycle;Signal;HPM_P1;HPM_P2
2022/06/30 00:00:39;;;;;;;3.58;3.10;;;;;;;;;;4399975;32;20742;-58
2022/06/30 00:03:05;;;;;;;9.00;3.42;;;;;;;;;;4400699;32;20316;-58
2022/06/30 00:05:30;;;;;;;3.87;3.08;;;;;;;;;;4404495;32;20645;-58
2022/06/30 00:07:56;;;;;;;4.75;2.78;;;;;;;;;;4405172;32;20275;-57
2022/06/30 00:10:22;;;;;;;9.18;3.22;;;;;;;;;;4404309;32;20225;-57
2022/06/30 00:12:47;;;;;;;5.35;3.37;;;;;;;;;;4406057;32;20256;-58
2022/06/30 00:15:13;;;;;;;7.05;2.97;;;;;;;;;;4405445;32;20619;-58
2022/06/30 00:17:38;;;;;;;9.52;3.03;;;;;;;;;;4405938;32;20525;-58
2022/06/30 00:20:04;;;;;;;4.25;3.45;;;;;;;;;;4405942;32;20288;-58
2022/06/30 00:22:30;;;;;;;3.45;3.15;;;;;;;;;;4405845;32;20694;-57
2022/06/30 00:24:55;;;;;;;7.20;3.42;;;;;;;;;;4396898;32;20222;-57
2022/06/30 00:27:21;;;;;;;3.60;3.12;;;;;;;;;;4389455;32;20233;-57
2022/06/30 00:29:46;;;;;;;6.90;2.45;;;;;;;;;;4390251;32;20610;-57
2022/06/30 00:32:12;;;;;;;3.80;2.92;;;;;;;;;;4390759;32;20626;-58
2022/06/30 00:34:37;;;;;;;7.37;4.97;;;;;;;;;;4416640;32;20677;-58
2022/06/30 00:37:03;;;;;;;10.40;7.62;;;;;;;;;;4405236;32;20329;-57
2022/06/30 00:39:29;;;;;;;7.05;6.35;;;;;;;;;;4405650;32;20249;-57
2022/06/30 00:41:55;;;;;;;9.90;6.35;;;;;;;;;;4401756;32;20308;-58
2022/06/30 00:44:21;;;;;;;9.57;5.45;;;;;;;;;;4390069;32;20214;-57
2022/06/30 00:46:47;;;;;;;12.70;4.43;;;;;;;;;;4389920;32;20265;-58
2022/06/30 00:49:13;;;;;;;7.45;4.97;;;;;;;;;;4390250;32;20242;-58
2022/06/30 00:51:39;;;;;;;10.05;4.80;;;;;;;;;;4390131;32;20221;-58
2022/06/30 00:54:05;;;;;;;10.13;4.60;;;;;;;;;;4392050;32;20306;-57
2022/06/30 00:56:33;;;;;;;4.90;3.72;;;;;;;;;;4402919;32;20253;-58
2022/06/30 00:59:02;;;;;;;6.78;4.70;;;;;;;;;;4404139;32;20279;-57
2022/06/30 01:01:29;;;;;;;9.63;4.00;;;;;;;;;;4405094;32;20255;-57
2022/06/30 01:03:55;;;;;;;10.88;4.85;;;;;;;;;;4404883;32;20304;-57
2022/06/30 01:06:22;;;;;;;9.07;4.07;;;;;;;;;;4405074;32;20225;-58
2022/06/30 01:08:49;;;;;;;4.20;3.65;;;;;;;;;;4404607;32;20218;-58
2022/06/30 01:14:03;;;;;;;4.43;3.35;;;;;;;;;;4404637;32;20672;-57
2022/06/30 01:16:29;;;;;;;8.57;4.25;;;;;;;;;;4402599;32;20255;-58
2022/06/30 01:18:55;;;;;;;6.40;3.97;;;;;;;;;;4405126;32;20292;-57
2022/06/30 01:21:20;;;;;;;12.80;3.45;;;;;;;;;;4403764;32;20251;-58
2022/06/30 01:23:46;;;;;;;5.10;3.25;;;;;;;;;;4404847;32;20294;-58
2022/06/30 01:26:12;;;;;;;9.18;3.55;;;;;;;;;;4404094;32;20221;-58
2022/06/30 01:28:37;;;;;;;6.57;4.03;;;;;;;;;;4404567;32;20237;-57
2022/06/30 01:31:03;;;;;;;8.20;3.80;;;;;;;;;;4404411;32;20662;-57
2022/06/30 01:33:28;;;;;;;7.30;3.85;;;;;;;;;;4395957;32;20240;-57
2022/06/30 01:35:57;;;;;;;7.72;5.40;;;;;;;;;;4389129;32;20300;-58
2022/06/30 01:38:23;;;;;;;8.38;4.93;;;;;;;;;;4397534;32;20520;-57
2022/06/30 01:40:51;;;;;;;13.50;4.55;;;;;;;;;;4404344;32;20316;-57
2022/06/30 01:43:16;;;;;;;5.65;3.72;;;;;;;;;;4391790;32;20369;-58
2022/06/30 01:45:42;;;;;;;7.07;4.32;;;;;;;;;;4389379;32;20257;-58
2022/06/30 01:48:09;;;;;;;10.95;4.72;;;;;;;;;;4388908;32;20237;-58
2022/06/30 01:50:35;;;;;;;13.73;3.53;;;;;;;;;;4389346;32;20711;-58
2022/06/30 01:53:01;;;;;;;9.10;3.65;;;;;;;;;;4387515;32;20643;-57
2022/06/30 01:55:28;;;;;;;8.40;4.35;;;;;;;;;;4394318;32;20274;-58
2022/06/30 01:57:53;;;;;;;7.35;3.25;;;;;;;;;;4404215;32;20220;-58
2022/06/30 02:00:21;;;;;;;5.72;3.12;;;;;;;;;;4403743;32;20314;-58
2022/06/30 02:02:48;;;;;;;5.20;3.90;;;;;;;;;;4404348;32;20234;-57
2022/06/30 02:05:14;;;;;;;6.12;3.70;;;;;;;;;;4403994;32;20296;-57
2022/06/30 02:07:40;;;;;;;7.95;4.07;;;;;;;;;;4401322;32;20574;-57
2022/06/30 02:10:08;;;;;;;6.55;4.10;;;;;;;;;;4388907;32;20284;-57
2022/06/30 02:12:45;;;;;;;8.90;4.20;;;;;;;;;;4393936;32;20632;-57
2022/06/30 02:15:15;;;;;;;7.70;4.32;;;;;;;;;;4403873;32;20233;-58
2022/06/30 02:17:41;;;;;;;5.90;4.32;;;;;;;;;;4404155;32;20232;-57
2022/06/30 02:20:08;;;;;;;6.80;4.03;;;;;;;;;;4403612;32;20281;-58
2022/06/30 02:22:35;;;;;;;5.40;3.95;;;;;;;;;;4403886;32;20256;-57
2022/06/30 02:25:01;;;;;;;5.78;3.60;;;;;;;;;;4398215;32;20423;-57
2022/06/30 02:27:26;;;;;;;6.95;4.03;;;;;;;;;;4388270;32;20673;-57
2022/06/30 02:29:52;;;;;;;8.40;4.18;;;;;;;;;;4388189;32;20201;-57
2022/06/30 02:32:19;;;;;;;8.85;4.53;;;;;;;;;;4389676;32;20661;-57
2022/06/30 02:34:45;;;;;;;6.60;4.22;;;;;;;;;;4403503;32;20371;-57
2022/06/30 02:37:10;;;;;;;5.65;4.82;;;;;;;;;;4403777;32;20773;-56
2022/06/30 02:39:36;;;;;;;10.45;4.45;;;;;;;;;;4403217;32;20209;-56
2022/06/30 02:42:02;;;;;;;6.28;3.97;;;;;;;;;;4399154;32;20304;-56
2022/06/30 02:44:27;;;;;;;6.62;4.32;;;;;;;;;;4388038;32;20283;-57
2022/06/30 02:46:54;;;;;;;14.32;5.00;;;;;;;;;;4388227;32;20255;-58
2022/06/30 02:49:20;;;;;;;7.82;4.22;;;;;;;;;;4401891;32;20213;-57
2022/06/30 02:51:46;;;;;;;8.43;4.00;;;;;;;;;;4403544;32;20797;-57
2022/06/30 02:54:11;;;;;;;7.53;4.22;;;;;;;;;;4403789;32;20283;-58
2022/06/30 02:56:37;;;;;;;5.12;3.90;;;;;;;;;;4394527;32;20275;-57
2022/06/30 02:59:02;;;;;;;7.47;4.50;;;;;;;;;;4402973;32;20546;-58
2022/06/30 03:01:28;;;;;;;5.55;3.70;;;;;;;;;;4403124;32;20252;-57
2022/06/30 03:03:53;;;;;;;9.75;6.65;;;;;;;;;;4403450;32;20201;-57
2022/06/30 03:06:19;;;;;;;14.40;12.05;;;;;;;;;;4403009;32;20360;-56
2022/06/30 03:08:44;;;;;;;20.92;13.25;;;;;;;;;;4395550;32;20280;-57
2022/06/30 03:11:16;;;;;;;17.85;15.07;;;;;;;;;;4387789;32;20238;-58
2022/06/30 03:13:44;;;;;;;11.85;9.10;;;;;;;;;;4396463;32;20283;-57
2022/06/30 03:16:11;;;;;;;8.23;5.05;;;;;;;;;;4387679;32;20472;-57
2022/06/30 03:18:36;;;;;;;6.72;4.65;;;;;;;;;;4387797;32;20257;-57
2022/06/30 03:21:02;;;;;;;5.90;4.78;;;;;;;;;;4387761;32;20679;-57
2022/06/30 03:23:27;;;;;;;8.85;4.30;;;;;;;;;;4397800;32;20217;-57
2022/06/30 03:25:53;;;;;;;5.25;4.45;;;;;;;;;;4402178;32;20221;-57
2022/06/30 03:28:18;;;;;;;6.32;4.85;;;;;;;;;;4402780;32;20363;-57
2022/06/30 03:30:47;;;;;;;7.10;4.72;;;;;;;;;;4402838;32;20278;-57
2022/06/30 03:33:15;;;;;;;5.15;4.37;;;;;;;;;;4402558;32;20237;-57
2022/06/30 03:35:41;;;;;;;5.28;4.60;;;;;;;;;;4402955;32;20268;-57
2022/06/30 03:38:06;;;;;;;5.12;4.05;;;;;;;;;;4402535;32;20291;-56
2022/06/30 03:40:33;;;;;;;5.93;4.18;;;;;;;;;;4402059;32;20221;-58
2022/06/30 03:42:59;;;;;;;14.43;4.32;;;;;;;;;;4402208;32;20229;-57
2022/06/30 03:45:25;;;;;;;9.20;4.53;;;;;;;;;;4402295;32;20209;-57
2022/06/30 03:47:51;;;;;;;8.40;3.92;;;;;;;;;;4402311;32;20304;-57
2022/06/30 03:50:16;;;;;;;6.87;4.18;;;;;;;;;;4402712;32;20618;-57
2022/06/30 03:52:41;;;;;;;7.68;3.58;;;;;;;;;;4402520;32;20578;-57
2022/06/30 03:55:07;;;;;;;9.98;3.55;;;;;;;;;;4399761;32;20244;-57
2022/06/30 03:57:33;;;;;;;9.30;3.87;;;;;;;;;;4398967;32;20267;-57
2022/06/30 03:59:58;;;;;;;4.72;3.67;;;;;;;;;;4402232;32;20206;-57
2022/06/30 04:02:24;;;;;;;4.75;3.75;;;;;;;;;;4402192;32;20557;-57
2022/06/30 04:04:49;;;;;;;7.05;4.82;;;;;;;;;;4402659;32;20397;-57
2022/06/30 04:07:15;;;;;;;10.60;5.05;;;;;;;;;;4402551;32;20364;-57
2022/06/30 04:09:40;;;;;;;8.30;5.05;;;;;;;;;;4391328;32;20210;-58
2022/06/30 04:12:06;;;;;;;9.10;4.37;;;;;;;;;;4387400;32;20245;-58
2022/06/30 04:14:31;;;;;;;5.35;4.62;;;;;;;;;;4387137;32;20602;-58
2022/06/30 04:16:57;;;;;;;6.97;4.20;;;;;;;;;;4387306;32;20230;-57
2022/06/30 04:19:23;;;;;;;5.28;4.10;;;;;;;;;;4387635;32;20276;-57
2022/06/30 04:21:49;;;;;;;6.35;3.97;;;;;;;;;;4386003;32;20230;-58
2022/06/30 04:24:14;;;;;;;7.35;4.72;;;;;;;;;;4387323;32;20197;-57
2022/06/30 04:26:40;;;;;;;9.60;4.43;;;;;;;;;;4397840;32;20289;-58
2022/06/30 04:29:05;;;;;;;9.57;4.43;;;;;;;;;;4402348;32;20302;-58
2022/06/30 04:34:15;;;;;;;14.10;4.68;;;;;;;;;;4402353;32;20657;-57
2022/06/30 04:36:41;;;;;;;4.60;4.15;;;;;;;;;;4402014;32;20225;-57
2022/06/30 04:39:06;;;;;;;9.15;5.25;;;;;;;;;;4402162;32;20225;-57
2022/06/30 04:41:31;;;;;;;5.43;4.00;;;;;;;;;;4401289;32;20309;-57
2022/06/30 04:43:59;;;;;;;4.40;4.00;;;;;;;;;;4387403;32;20232;-57
2022/06/30 04:46:25;;;;;;;7.75;4.50;;;;;;;;;;4386992;32;20323;-57
2022/06/30 04:48:52;;;;;;;8.60;4.47;;;;;;;;;;4387374;32;20240;-57
2022/06/30 04:51:18;;;;;;;8.10;5.05;;;;;;;;;;4389237;32;20225;-57
2022/06/30 04:53:43;;;;;;;10.30;5.30;;;;;;;;;;4390013;32;20225;-58
2022/06/30 04:56:09;;;;;;;4.85;4.10;;;;;;;;;;4397191;32;20387;-57
2022/06/30 04:58:36;;;;;;;8.95;4.35;;;;;;;;;;4404924;32;20292;-57
2022/06/30 05:01:02;;;;;;;12.80;5.20;;;;;;;;;;4405265;32;20206;-57
2022/06/30 05:03:28;;;;;;;7.43;4.97;;;;;;;;;;4405273;32;20276;-58
2022/06/30 05:05:53;;;;;;;9.23;5.05;;;;;;;;;;4405226;32;20205;-57
2022/06/30 05:08:19;;;;;;;21.30;5.00;;;;;;;;;;4404405;32;20535;-56
2022/06/30 05:10:45;;;;;;;12.50;4.68;;;;;;;;;;4390573;32;20319;-56
2022/06/30 05:13:11;;;;;;;10.55;5.28;;;;;;;;;;4399053;32;20291;-57
2022/06/30 05:15:37;;;;;;;11.88;5.12;;;;;;;;;;4405035;32;20233;-57
2022/06/30 05:18:03;;;;;;;8.68;5.35;;;;;;;;;;4404685;32;20229;-57
2022/06/30 05:20:29;;;;;;;6.55;5.35;;;;;;;;;;4404990;32;20243;-57
2022/06/30 05:22:54;;;;;;;9.52;5.30;;;;;;;;;;4404773;32;20254;-57
2022/06/30 05:28:04;;;;;;;11.73;5.87;;;;;;;;;;4401654;32;20614;-57
2022/06/30 05:30:30;;;;;;;14.48;5.85;;;;;;;;;;4401347;32;20229;-57
2022/06/30 05:32:55;;;;;;;16.67;5.30;;;;;;;;;;4402677;32;20316;-57
2022/06/30 05:35:21;;;;;;;5.90;4.95;;;;;;;;;;4403354;32;20531;-58
2022/06/30 05:37:47;;;;;;;8.10;5.60;;;;;;;;;;4403210;32;20268;-58
2022/06/30 05:40:12;;;;;;;12.57;5.47;;;;;;;;;;4415542;32;20268;-58
2022/06/30 05:42:38;;;;;;;10.02;5.78;;;;;;;;;;4395764;32;20249;-58
2022/06/30 05:45:05;;;;;;;7.10;5.40;;;;;;;;;;4389312;32;20205;-57
2022/06/30 05:47:30;;;;;;;13.85;5.93;;;;;;;;;;4389047;32;20230;-56
2022/06/30 05:49:56;;;;;;;15.60;5.78;;;;;;;;;;4388876;32;20679;-57
2022/06/30 05:52:21;;;;;;;25.50;6.68;;;;;;;;;;4389103;32;20230;-57
2022/06/30 05:54:47;;;;;;;11.75;5.10;;;;;;;;;;4389453;32;20856;-57
2022/06/30 05:57:12;;;;;;;16.00;5.97;;;;;;;;;;4400436;32;20256;-57
2022/06/30 05:59:38;;;;;;;9.32;5.47;;;;;;;;;;4404146;32;20213;-58
2022/06/30 06:02:04;;;;;;;8.48;5.10;;;;;;;;;;4403520;32;20234;-58
2022/06/30 06:04:29;;;;;;;15.80;5.55;;;;;;;;;;4404560;32;20598;-58
2022/06/30 06:06:55;;;;;;;10.63;5.03;;;;;;;;;;4404404;32;20293;-58
2022/06/30 06:09:21;;;;;;;5.82;4.62;;;;;;;;;;4399286;32;20666;-57
2022/06/30 06:11:47;;;;;;;8.55;5.25;;;;;;;;;;4388874;32;20225;-57
2022/06/30 06:14:13;;;;;;;7.32;5.45;;;;;;;;;;4388583;32;20259;-56
2022/06/30 06:16:38;;;;;;;6.32;4.53;;;;;;;;;;4388627;32;20237;-57
2022/06/30 06:19:04;;;;;;;9.40;5.00;;;;;;;;;;4388766;32;20232;-56
2022/06/30 06:21:29;;;;;;;9.75;5.57;;;;;;;;;;4388700;32;20705;-58
2022/06/30 06:23:55;;;;;;;6.53;5.00;;;;;;;;;;4399098;32;20300;-58
2022/06/30 06:26:21;;;;;;;11.65;4.97;;;;;;;;;;4398676;32;20268;-58
2022/06/30 06:31:31;;;;;;;6.78;4.53;;;;;;;;;;4388183;32;20316;-58
2022/06/30 06:33:57;;;;;;;10.40;5.43;;;;;;;;;;4388466;32;20607;-58
2022/06/30 06:36:22;;;;;;;6.90;4.60;;;;;;;;;;4388427;32;20241;-57
2022/06/30 06:38:48;;;;;;;8.95;5.00;;;;;;;;;;4387893;32;20245;-57
2022/06/30 06:41:14;;;;;;;12.93;5.18;;;;;;;;;;4403609;32;20255;-57
2022/06/30 06:43:40;;;;;;;11.43;5.25;;;;;;;;;;4388541;32;20222;-57
2022/06/30 06:46:05;;;;;;;6.70;5.12;;;;;;;;;;4388698;32;20301;-59
2022/06/30 06:48:31;;;;;;;7.03;5.12;;;;;;;;;;4388707;32;20516;-57
2022/06/30 06:50:56;;;;;;;6.68;4.75;;;;;;;;;;4388568;32;20607;-57
2022/06/30 06:53:22;;;;;;;8.88;4.95;;;;;;;;;;4388912;32;20225;-57
2022/06/30 06:55:47;;;;;;;8.50;5.10;;;;;;;;;;4389145;32;20198;-57
2022/06/30 06:58:13;;;;;;;11.70;5.85;;;;;;;;;;4402881;32;20296;-57
2022/06/30 07:00:38;;;;;;;15.18;5.12;;;;;;;;;;4402637;32;20217;-57
2022/06/30 07:03:04;;;;;;;7.82;4.87;;;;;;;;;;4401548;32;20693;-57
2022/06/30 07:05:29;;;;;;;6.85;4.93;;;;;;;;;;4401647;32;20218;-57
2022/06/30 07:07:59;;;;;;;9.00;5.93;;;;;;;;;;4400149;32;20467;-57
2022/06/30 07:10:25;;;;;;;7.72;6.43;;;;;;;;;;4392188;32;20690;-57
2022/06/30 07:12:51;;;;;;;6.18;5.15;;;;;;;;;;4394533;32;20298;-57
2022/06/30 07:15:17;;;;;;;8.70;5.68;;;;;;;;;;4408103;32;20595;-57
2022/06/30 07:17:42;;;;;;;7.05;5.30;;;;;;;;;;4403826;32;20255;-57
2022/06/30 07:20:08;;;;;;;7.82;4.75;;;;;;;;;;4393195;32;20225;-57
2022/06/30 07:22:34;;;;;;;8.07;5.00;;;;;;;;;;4388564;32;20670;-57
2022/06/30 07:24:59;;;;;;;6.12;5.53;;;;;;;;;;4389490;32;20240;-58
2022/06/30 07:27:25;;;;;;;8.40;5.80;;;;;;;;;;4395256;32;20309;-58
2022/06/30 07:29:50;;;;;;;12.18;5.75;;;;;;;;;;4395181;32;20247;-57
2022/06/30 07:32:16;;;;;;;10.38;5.40;;;;;;;;;;4403655;32;20224;-58
2022/06/30 07:34:42;;;;;;;9.35;5.32;;;;;;;;;;4403461;32;20401;-58
2022/06/30 07:37:07;;;;;;;14.75;5.72;;;;;;;;;;4403586;32;20241;-58
2022/06/30 07:39:33;;;;;;;8.05;5.05;;;;;;;;;;4399697;32;20352;-57
2022/06/30 07:41:58;;;;;;;12.60;5.90;;;;;;;;;;4391840;32;20720;-57
2022/06/30 07:44:23;;;;;;;14.35;6.32;;;;;;;;;;4403057;32;20241;-58
2022/06/30 07:46:49;;;;;;;11.48;6.60;;;;;;;;;;4403081;32;20710;-58
2022/06/30 07:49:14;;;;;;;12.63;5.37;;;;;;;;;;4403479;32;20276;-57
2022/06/30 07:51:40;;;;;;;8.88;5.03;;;;;;;;;;4403116;32;20232;-57
2022/06/30 07:54:05;;;;;;;9.07;5.00;;;;;;;;;;4403109;32;20633;-57
2022/06/30 07:56:32;;;;;;;7.87;4.75;;;;;;;;;;4399970;32;20295;-57
2022/06/30 07:58:58;;;;;;;9.75;5.60;;;;;;;;;;4402368;32;20273;-57
2022/06/30 08:01:24;;;;;;;15.70;5.00;;;;;;;;;;4403370;32;20279;-57
2022/06/30 08:03:49;;;;;;;11.40;5.62;;;;;;;;;;4403199;32;20337;-57
2022/06/30 08:06:15;;;;;;;9.93;5.40;;;;;;;;;;4403095;32;20232;-59
2022/06/30 08:08:41;;;;;;;6.30;5.00;;;;;;;;;;4402991;32;20231;-57
2022/06/30 08:11:08;;;;;;;5.57;4.50;;;;;;;;;;4402281;32;20209;-57
2022/06/30 08:13:34;;;;;;;7.32;4.55;;;;;;;;;;4402073;32;20218;-57
2022/06/30 08:15:59;;;;;;;5.32;3.85;;;;;;;;;;4402608;32;20520;-57
2022/06/30 08:18:25;;;;;;;6.20;4.60;;;;;;;;;;4402524;32;20720;-57
2022/06/30 08:20:50;;;;;;;5.57;4.57;;;;;;;;;;4403210;32;20286;-58
2022/06/30 08:23:16;;;;;;;9.32;4.68;;;;;;;;;;4403083;32;20238;-57
2022/06/30 08:25:41;;;;;;;5.47;4.43;;;;;;;;;;4404525;32;20257;-57
2022/06/30 08:28:08;;;;;;;9.68;4.55;;;;;;;;;;4392964;32;20306;-57
2022/06/30 08:30:34;;;;;;;4.43;4.03;;;;;;;;;;4390352;32;20582;-58
2022/06/30 08:32:59;;;;;;;11.02;5.40;;;;;;;;;;4392430;32;20297;-57
2022/06/30 08:35:25;;;;;;;7.25;4.60;;;;;;;;;;4405795;32;20280;-57
2022/06/30 08:37:50;;;;;;;7.55;5.40;;;;;;;;;;4405818;32;20271;-57
2022/06/30 08:43:00;;;;;;;5.57;4.35;;;;;;;;;;4394599;32;20300;-57
2022/06/30 08:45:29;;;;;;;8.13;4.93;;;;;;;;;;4389073;32;20238;-58
2022/06/30 08:47:55;;;;;;;9.85;5.07;;;;;;;;;;4390362;32;20325;-58
2022/06/30 08:50:21;;;;;;;14.70;5.75;;;;;;;;;;4390683;32;20630;-58
2022/06/30 08:52:48;;;;;;;5.70;4.55;;;;;;;;;;4390813;32;20354;-59
2022/06/30 08:55:15;;;;;;;10.52;4.32;;;;;;;;;;4390669;32;20268;-57
2022/06/30 08:57:43;;;;;;;8.80;4.18;;;;;;;;;;4398546;32;20286;-57
2022/06/30 09:00:09;;;;;;;8.32;5.07;;;;;;;;;;4405813;32;20217;-57
2022/06/30 09:02:35;;;;;;;9.93;4.62;;;;;;;;;;4405876;32;20308;-57
2022/06/30 09:05:01;;;;;;;8.95;4.53;;;;;;;;;;4405543;32;20294;-57
2022/06/30 09:07:27;;;;;;;9.52;4.28;;;;;;;;;;4405059;32;20234;-57
2022/06/30 09:09:52;;;;;;;11.55;5.03;;;;;;;;;;4403199;32;20293;-57
2022/06/30 09:12:19;;;;;;;5.07;4.57;;;;;;;;;;4391331;32;20312;-57
2022/06/30 09:14:48;;;;;;;10.27;3.83;;;;;;;;;;4396233;32;20300;-57
2022/06/30 09:17:15;;;;;;;5.18;3.92;;;;;;;;;;4390823;32;20217;-58
2022/06/30 09:19:55;;;;;;;8.52;3.92;;;;;;;;;;4390189;32;20241;-58
2022/06/30 09:22:23;;;;;;;4.25;3.67;;;;;;;;;;4405036;32;20225;-58
2022/06/30 09:24:59;;;;;;;7.22;3.75;;;;;;;;;;4405654;32;20314;-58
2022/06/30 09:27:29;;;;;;;7.68;4.57;;;;;;;;;;4404659;32;20345;-57
2022/06/30 09:30:12;;;;;;;5.25;4.28;;;;;;;;;;4405023;32;20238;-57
2022/06/30 09:32:53;;;;;;;4.45;3.40;;;;;;;;;;4405161;32;20260;-58
2022/06/30 09:35:24;;;;;;;10.10;4.62;;;;;;;;;;4390158;32;20244;-57
2022/06/30 09:38:07;;;;;;;15.00;4.82;;;;;;;;;;4389321;32;20257;-58
2022/06/30 09:40:35;;;;;;;7.50;4.00;;;;;;;;;;4394271;32;20624;-57
2022/06/30 09:43:03;;;;;;;7.03;3.80;;;;;;;;;;4393533;32;20230;-58
2022/06/30 09:45:41;;;;;;;8.68;3.62;;;;;;;;;;4390098;32;20303;-57
2022/06/30 09:48:09;;;;;;;5.78;3.92;;;;;;;;;;4390056;32;20304;-58
2022/06/30 09:50:35;;;;;;;5.37;3.92;;;;;;;;;;4389667;32;20326;-57
2022/06/30 09:53:12;;;;;;;5.80;3.90;;;;;;;;;;4389922;32;20617;-58
2022/06/30 09:55:47;;;;;;;4.65;3.33;;;;;;;;;;4390251;32;20265;-58
2022/06/30 09:58:30;;;;;;;9.30;4.10;;;;;;;;;;4389343;32;20719;-58
2022/06/30 10:00:58;;;;;;;4.20;3.05;;;;;;;;;;4393658;32;20337;-58
2022/06/30 10:03:23;;;;;;;11.27;3.65;;;;;;;;;;4404096;32;20323;-58
2022/06/30 10:05:50;;;;;;;14.20;2.67;;;;;;;;;;4404644;32;20210;-59
2022/06/30 10:08:18;;;;;;;4.90;2.08;;;;;;;;;;4405180;32;20204;-57
2022/06/30 10:10:45;;;;;;;11.18;3.17;;;;;;;;;;4404724;32;20284;-57
2022/06/30 10:13:17;;;;;;;5.78;2.72;;;;;;;;;;4404469;32;20282;-58
2022/06/30 10:15:52;;;;;;;6.87;2.70;;;;;;;;;;4404437;32;20293;-58
2022/06/30 10:18:19;;;;;;;7.20;2.67;;;;;;;;;;4404117;32;20608;-58
2022/06/30 10:20:46;;;;;;;4.55;2.40;;;;;;;;;;4410633;32;20264;-57
2022/06/30 10:23:13;;;;;;;2.90;2.30;;;;;;;;;;4402396;32;20261;-57
2022/06/30 10:25:40;;;;;;;4.18;2.85;;;;;;;;;;4404781;32;20662;-58
2022/06/30 10:28:06;;;;;;;5.93;3.10;;;;;;;;;;4398939;32;20275;-58
2022/06/30 10:30:47;;;;;;;3.00;2.28;;;;;;;;;;4404154;32;20656;-58
2022/06/30 10:33:22;;;;;;;6.72;2.90;;;;;;;;;;4406946;32;20245;-58
2022/06/30 10:35:56;;;;;;;4.35;2.83;;;;;;;;;;4409385;32;20282;-58
2022/06/30 10:38:43;;;;;;;2.67;2.20;;;;;;;;;;4404143;32;20209;-58
2022/06/30 10:41:14;;;;;;;6.97;2.17;;;;;;;;;;4403258;32;20320;-58
2022/06/30 10:44:05;;;;;;;3.75;2.35;;;;;;;;;;4403584;32;20225;-57
2022/06/30 10:46:30;;;;;;;9.48;2.58;;;;;;;;;;4404133;32;20668;-59
2022/06/30 10:48:56;;;;;;;2.47;1.90;;;;;;;;;;4404082;32;20233;-58
2022/06/30 10:51:23;;;;;;;3.08;2.40;;;;;;;;;;4403981;32;20217;-58
2022/06/30 10:53:51;;;;;;;7.05;2.25;;;;;;;;;;4404414;32;20253;-58
2022/06/30 10:56:18;;;;;;;1.98;1.70;;;;;;;;;;4403691;32;20225;-58
2022/06/30 10:59:10;;;;;;;3.35;2.10;;;;;;;;;;4393856;32;20209;-58
2022/06/30 11:01:37;;;;;;;5.03;1.83;;;;;;;;;;4403910;32;20296;-57
2022/06/30 11:04:03;;;;;;;1.75;1.35;;;;;;;;;;4403193;32;20265;-59
2022/06/30 11:06:55;;;;;;;6.50;1.70;;;;;;;;;;4406528;32;20245;-57
2022/06/30 11:09:43;;;;;;;5.30;2.22;;;;;;;;;;4397755;32;20226;-59
2022/06/30 11:12:10;;;;;;;2.87;2.10;;;;;;;;;;4389231;32;20213;-58
2022/06/30 11:14:36;;;;;;;5.28;2.17;;;;;;;;;;4403488;32;20800;-58
2022/06/30 11:17:13;;;;;;;4.20;2.75;;;;;;;;;;4403334;32;20234;-58
2022/06/30 11:19:38;;;;;;;8.50;2.90;;;;;;;;;;4403741;32;20526;-60
2022/06/30 11:22:06;;;;;;;7.37;3.45;;;;;;;;;;4413579;32;20293;-58
2022/06/30 11:24:37;;;;;;;6.25;2.40;;;;;;;;;;4418762;32;20295;-57
2022/06/30 11:27:24;;;;;;;3.33;2.85;;;;;;;;;;4416209;32;20226;-58
2022/06/30 11:30:01;;;;;;;3.12;2.83;;;;;;;;;;4387540;32;20248;-58
2022/06/30 11:32:27;;;;;;;3.80;2.85;;;;;;;;;;4388685;32;20239;-58
2022/06/30 11:34:53;;;;;;;6.10;2.72;;;;;;;;;;4388392;32;20294;-58
2022/06/30 11:40:01;;;;;;;3.37;2.47;;;;;;;;;;4193488;30;20248;-90
2022/06/30 12:39:46;;;;;;;4.20;2.20;;;;;;;;;;4359738;32;20351;-93
2022/06/30 12:42:14;;;;;;;3.62;2.72;;;;;;;;;;4359614;33;20709;-92
2022/06/30 12:44:40;;;;;;;6.57;2.58;;;;;;;;;;4359435;33;20700;-91
2022/06/30 12:47:11;;;;;;;8.60;2.85;;;;;;;;;;4359364;33;20604;-92
2022/06/30 12:49:38;;;;;;;3.42;2.15;;;;;;;;;;4359746;33;20636;-94
2022/06/30 12:52:14;;;;;;;6.68;2.47;;;;;;;;;;4359544;33;20551;-92
2022/06/30 12:55:09;;;;;;;7.15;2.55;;;;;;;;;;4359626;33;20586;-91
2022/06/30 12:57:36;;;;;;;4.03;2.70;;;;;;;;;;4349646;33;20583;-86
2022/06/30 13:00:03;;;;;;;4.37;2.25;;;;;;;;;;4359458;33;20790;-94
2022/06/30 13:02:39;;;;;;;6.70;2.53;;;;;;;;;;4359207;33;20652;-91
2022/06/30 13:05:15;;;;;;;8.68;2.47;;;;;;;;;;4359232;33;20699;-93
2022/06/30 13:07:41;;;;;;;9.77;2.80;;;;;;;;;;4359350;33;20682;-86
2022/06/30 13:10:07;;;;;;;2.47;2.10;;;;;;;;;;4358952;33;20605;-84
2022/06/30 13:12:33;;;;;;;3.92;2.28;;;;;;;;;;4361139;32;20584;-91
2022/06/30 13:14:59;;;;;;;7.60;2.35;;;;;;;;;;4360397;32;20612;-86
2022/06/30 13:17:25;;;;;;;5.80;2.22;;;;;;;;;;4361312;32;20241;-84
2022/06/30 13:19:51;;;;;;;2.50;2.03;;;;;;;;;;4361380;32;20675;-83
2022/06/30 13:22:18;;;;;;;5.22;2.25;;;;;;;;;;4361234;32;20219;-85
2022/06/30 13:24:44;;;;;;;3.00;2.30;;;;;;;;;;4361430;32;20540;-84
2022/06/30 13:27:12;;;;;;;9.75;3.03;;;;;;;;;;4361211;32;20214;-85
2022/06/30 13:29:41;;;;;;;2.62;2.17;;;;;;;;;;4361362;32;20593;-91
2022/06/30 13:32:08;;;;;;;3.37;2.42;;;;;;;;;;4361306;32;20613;-91
2022/06/30 13:34:34;;;;;;;3.95;2.17;;;;;;;;;;4361299;32;20501;-90
2022/06/30 13:37:00;;;;;;;3.00;2.00;;;;;;;;;;4361260;32;20214;-89
2022/06/30 13:39:28;;;;;;;5.15;2.40;;;;;;;;;;4361381;32;20697;-89
2022/06/30 13:41:53;;;;;;;7.85;2.08;;;;;;;;;;4361663;32;20510;-82
2022/06/30 13:44:20;;;;;;;9.52;2.80;;;;;;;;;;4361488;32;20312;-89
2022/06/30 13:46:46;;;;;;;8.35;2.65;;;;;;;;;;4361515;32;20533;-90
2022/06/30 13:49:12;;;;;;;8.77;1.83;;;;;;;;;;4361533;32;20307;-92
2022/06/30 13:51:38;;;;;;;2.35;1.80;;;;;;;;;;4361536;32;20241;-94
2022/06/30 13:54:04;;;;;;;5.18;1.85;;;;;;;;;;4361737;32;20269;-93
2022/06/30 13:56:29;;;;;;;8.38;1.87;;;;;;;;;;4361929;32;20296;-93
2022/06/30 13:58:56;;;;;;;3.08;1.80;;;;;;;;;;4361884;32;20195;-80
2022/06/30 14:01:22;;;;;;;4.62;2.10;;;;;;;;;;4360983;32;20690;-81
2022/06/30 14:03:49;;;;;;;3.72;1.92;;;;;;;;;;4361067;32;20577;-82
2022/06/30 14:06:15;;;;;;;3.70;1.80;;;;;;;;;;4361074;32;20600;-83
2022/06/30 14:08:41;;;;;;;3.25;1.92;;;;;;;;;;4359672;32;20545;-82
2022/06/30 14:11:07;;;;;;;2.28;1.85;;;;;;;;;;4360442;32;20217;-83
2022/06/30 14:13:32;;;;;;;4.65;2.10;;;;;;;;;;4359392;32;20784;-81
2022/06/30 14:15:58;;;;;;;4.20;1.98;;;;;;;;;;4360837;32;20194;-83
2022/06/30 14:18:25;;;;;;;3.60;2.37;;;;;;;;;;4360655;32;20219;-87
2022/06/30 14:20:51;;;;;;;4.72;2.55;;;;;;;;;;4361374;32;20548;-85
2022/06/30 14:23:17;;;;;;;4.97;2.15;;;;;;;;;;4364552;32;20317;-86
2022/06/30 14:25:44;;;;;;;3.40;2.20;;;;;;;;;;4360714;32;20698;-85
2022/06/30 14:28:09;;;;;;;2.30;1.70;;;;;;;;;;4360834;32;20747;-91
2022/06/30 14:30:35;;;;;;;2.78;1.83;;;;;;;;;;4362170;32;20225;-90
2022/06/30 14:33:02;;;;;;;7.10;1.80;;;;;;;;;;4360686;32;20710;-91
2022/06/30 14:35:30;;;;;;;2.67;1.90;;;;;;;;;;4360865;32;20190;-83
2022/06/30 14:37:56;;;;;;;4.30;2.08;;;;;;;;;;4360703;32;20521;-92
2022/06/30 14:40:22;;;;;;;3.70;1.83;;;;;;;;;;4360241;32;20317;-85
2022/06/30 14:42:48;;;;;;;3.37;1.40;;;;;;;;;;4360945;32;20198;-90
2022/06/30 14:45:19;;;;;;;6.25;1.45;;;;;;;;;;4360541;32;20771;-93
2022/06/30 14:47:48;;;;;;;2.53;1.80;;;;;;;;;;4360344;32;20602;-91
2022/06/30 14:50:14;;;;;;;1.33;1.12;;;;;;;;;;4360146;32;20646;-90
2022/06/30 14:52:42;;;;;;;3.65;1.15;;;;;;;;;;4360437;32;20611;-93
2022/06/30 14:55:10;;;;;;;2.47;1.45;;;;;;;;;;4359279;32;20663;-92
2022/06/30 14:57:40;;;;;;;3.50;1.50;;;;;;;;;;4359553;32;20560;-91
2022/06/30 15:00:09;;;;;;;1.58;1.30;;;;;;;;;;4360280;32;20640;-91
2022/06/30 15:02:39;;;;;;;6.20;1.27;;;;;;;;;;4360373;32;20669;-90
2022/06/30 15:05:06;;;;;;;4.90;1.75;;;;;;;;;;4359919;32;20620;-84
2022/06/30 15:07:33;;;;;;;2.83;1.20;;;;;;;;;;4360093;32;20745;-85
2022/06/30 15:09:59;;;;;;;1.90;1.35;;;;;;;;;;4360015;32;20530;-89
2022/06/30 15:12:25;;;;;;;3.65;1.20;;;;;;;;;;4358848;32;20599;-90
2022/06/30 15:14:50;;;;;;;2.47;1.40;;;;;;;;;;4360132;32;20361;-89
2022/06/30 15:17:16;;;;;;;4.18;1.50;;;;;;;;;;4360183;32;20218;-89
2022/06/30 15:19:42;;;;;;;9.63;1.80;;;;;;;;;;4360175;32;20277;-91
2022/06/30 15:24:52;;;;;;;2.10;1.42;;;;;;;;;;4360197;32;20353;-90
2022/06/30 15:27:18;;;;;;;3.10;2.10;;;;;;;;;;4360262;32;20196;-92
2022/06/30 15:29:48;;;;;;;2.33;1.60;;;;;;;;;;4360049;32;20241;-88
2022/06/30 15:32:19;;;;;;;2.78;1.48;;;;;;;;;;4360051;32;20608;-89
2022/06/30 15:34:49;;;;;;;6.62;2.00;;;;;;;;;;4359281;32;20364;-88
2022/06/30 15:37:15;;;;;;;8.38;2.60;;;;;;;;;;4359870;32;20242;-86
2022/06/30 15:39:41;;;;;;;7.28;2.50;;;;;;;;;;4359543;32;20666;-87
2022/06/30 15:42:15;;;;;;;11.48;2.92;;;;;;;;;;4359849;32;20592;-88
2022/06/30 15:44:49;;;;;;;5.12;2.30;;;;;;;;;;4359810;32;20636;-89
2022/06/30 15:47:16;;;;;;;3.10;2.10;;;;;;;;;;4359926;32;20604;-89
2022/06/30 15:49:42;;;;;;;7.22;2.10;;;;;;;;;;4359492;32;20629;-90
2022/06/30 15:52:08;;;;;;;4.18;2.40;;;;;;;;;;4359031;32;20560;-89
2022/06/30 15:54:34;;;;;;;4.37;2.85;;;;;;;;;;4359214;32;20710;-89
2022/06/30 15:57:00;;;;;;;11.00;3.28;;;;;;;;;;4359441;32;20609;-90